Time;durP1;ratioP1;P1;durP2;ratioP2;P2;SDS_P1;SDS_P2;PMS_P1;PMS_P2;Temp;Humidity;BMP_temperature;BMP_pressure;BME280_temperature;BME280_humidity;BME280_pressure;Samples;Min_cycle;Max_cycle;Signal;HPM_P1;HPM_P2
2022/05/14 00:02:07;;;;;;;2.67;1.63;;;13.60;59.00;;;;;;987941;142;27342;-79
2022/05/14 00:04:33;;;;;;;2.37;1.90;;;13.60;59.10;;;;;;986558;142;27363;-78
2022/05/14 00:06:59;;;;;;;2.37;1.80;;;13.60;59.20;;;;;;986638;142;27330;-78
2022/05/14 00:09:26;;;;;;;2.63;2.03;;;13.50;59.40;;;;;;985167;142;27455;-78
2022/05/14 00:14:38;;;;;;;2.47;2.07;;;13.50;59.60;;;;;;985946;142;27239;-79
2022/05/14 00:17:04;;;;;;;1.87;1.70;;;13.50;59.60;;;;;;985136;142;27416;-78
2022/05/14 00:19:31;;;;;;;3.87;2.00;;;13.40;59.80;;;;;;987627;142;27290;-78
2022/05/14 00:21:57;;;;;;;4.30;1.90;;;13.50;59.90;;;;;;985349;142;27441;-78
2022/05/14 00:24:24;;;;;;;2.27;2.07;;;13.40;60.00;;;;;;987447;142;27303;-78
2022/05/14 00:26:51;;;;;;;2.10;2.00;;;13.40;60.10;;;;;;985653;142;27417;-78
2022/05/14 00:29:17;;;;;;;2.20;1.80;;;13.40;60.40;;;;;;982357;142;27779;-79
2022/05/14 00:31:44;;;;;;;2.63;2.00;;;13.40;60.40;;;;;;987241;142;27210;-78
2022/05/14 00:34:10;;;;;;;2.77;1.90;;;13.30;60.60;;;;;;987406;142;27824;-78
2022/05/14 00:36:37;;;;;;;3.27;2.40;;;13.30;60.60;;;;;;987267;142;27307;-79
2022/05/14 00:39:03;;;;;;;2.20;2.03;;;13.30;60.70;;;;;;984983;142;28253;-79
2022/05/14 00:41:30;;;;;;;2.20;2.00;;;13.30;60.90;;;;;;983447;142;27263;-79
2022/05/14 00:43:57;;;;;;;2.23;1.80;;;13.20;60.90;;;;;;983849;142;27251;-79
2022/05/14 00:46:26;;;;;;;3.83;2.17;;;13.20;60.90;;;;;;985204;142;27375;-78
2022/05/14 00:48:52;;;;;;;2.93;2.47;;;13.20;60.90;;;;;;983763;142;27297;-78
2022/05/14 00:51:19;;;;;;;2.50;2.30;;;13.10;60.90;;;;;;985098;142;27340;-78
2022/05/14 00:53:48;;;;;;;3.27;2.13;;;13.10;61.00;;;;;;986092;142;27288;-78
2022/05/14 00:56:15;;;;;;;2.27;1.93;;;13.00;61.30;;;;;;978430;142;27256;-78
2022/05/14 00:59:02;;;;;;;3.10;1.90;;;13.00;61.20;;;;;;979509;143;27405;-78
2022/05/14 01:01:29;;;;;;;1.80;1.70;;;12.90;61.40;;;;;;979494;143;27263;-79
2022/05/14 01:03:55;;;;;;;2.07;1.97;;;12.90;61.50;;;;;;980460;143;27225;-78
2022/05/14 01:06:22;;;;;;;2.00;1.80;;;12.80;61.70;;;;;;981549;143;27286;-78
2022/05/14 01:08:48;;;;;;;2.20;2.00;;;12.80;61.80;;;;;;979932;143;27699;-78
2022/05/14 01:11:15;;;;;;;3.30;2.30;;;12.70;62.00;;;;;;980146;143;27319;-78
2022/05/14 01:13:41;;;;;;;2.90;2.33;;;12.70;62.30;;;;;;980719;143;27711;-78
2022/05/14 01:16:08;;;;;;;2.57;2.37;;;12.60;62.50;;;;;;981489;143;27279;-78
2022/05/14 01:18:35;;;;;;;3.53;2.90;;;12.60;62.70;;;;;;981660;143;27379;-78
2022/05/14 01:21:01;;;;;;;2.77;2.20;;;12.60;63.40;;;;;;978738;143;27368;-78
2022/05/14 01:26:31;;;;;;;2.80;2.60;;;12.50;64.60;;;;;;979859;143;27326;-79
2022/05/14 01:29:00;;;;;;;3.40;2.47;;;12.50;63.70;;;;;;979433;143;27321;-79
2022/05/14 01:31:27;;;;;;;4.70;2.20;;;12.50;64.10;;;;;;980506;143;27283;-79
2022/05/14 01:33:53;;;;;;;2.40;2.20;;;12.50;64.40;;;;;;980031;143;27286;-78
2022/05/14 01:36:20;;;;;;;2.73;1.93;;;12.40;64.30;;;;;;981085;143;27331;-78
2022/05/14 01:38:46;;;;;;;3.00;1.93;;;12.40;64.30;;;;;;981545;143;27318;-78
2022/05/14 01:41:13;;;;;;;3.07;2.27;;;12.40;64.10;;;;;;980086;143;27773;-78
2022/05/14 01:43:40;;;;;;;2.50;2.30;;;12.40;64.00;;;;;;981177;143;27249;-78
2022/05/14 01:46:06;;;;;;;1.83;1.73;;;12.30;64.00;;;;;;981126;143;27323;-78
2022/05/14 01:48:33;;;;;;;2.17;1.97;;;12.30;64.20;;;;;;979669;143;27252;-78
2022/05/14 01:50:59;;;;;;;2.40;2.20;;;12.20;64.10;;;;;;980438;143;27308;-78
2022/05/14 01:53:26;;;;;;;2.77;2.47;;;12.10;64.30;;;;;;979811;143;27766;-78
2022/05/14 01:55:52;;;;;;;2.10;2.00;;;12.10;64.60;;;;;;982955;142;27320;-78
2022/05/14 01:58:37;;;;;;;2.70;2.30;;;12.00;64.50;;;;;;985969;142;27273;-78
2022/05/14 02:01:15;;;;;;;3.50;2.50;;;12.00;64.80;;;;;;985099;142;27322;-79
2022/05/14 02:03:42;;;;;;;2.30;2.10;;;11.90;64.10;;;;;;973374;142;27326;-77
2022/05/14 02:06:08;;;;;;;2.80;2.13;;;11.90;65.00;;;;;;985199;142;27364;-77
2022/05/14 02:08:35;;;;;;;2.13;1.93;;;11.80;65.20;;;;;;984565;142;27306;-77
2022/05/14 02:13:29;;;;;;;3.00;1.90;;;11.70;65.30;;;;;;971069;144;38368;-73
2022/05/14 02:15:56;;;;;;;2.83;1.90;;;11.70;65.80;;;;;;957869;146;27304;-75
2022/05/14 02:18:23;;;;;;;2.60;2.23;;;11.70;65.90;;;;;;955034;149;27320;-75
2022/05/14 02:20:49;;;;;;;2.13;1.93;;;11.60;66.00;;;;;;958426;149;27478;-75
2022/05/14 02:23:16;;;;;;;4.03;2.50;;;11.60;66.10;;;;;;957514;147;28425;-75
2022/05/14 02:25:42;;;;;;;2.43;2.23;;;11.60;66.20;;;;;;958267;149;27287;-75
2022/05/14 02:28:09;;;;;;;2.70;2.30;;;11.50;66.30;;;;;;960035;149;27336;-75
2022/05/14 02:30:36;;;;;;;3.47;1.97;;;11.50;66.70;;;;;;957098;149;27222;-75
2022/05/14 02:33:02;;;;;;;3.47;1.80;;;11.40;66.50;;;;;;959349;148;27330;-75
2022/05/14 02:35:29;;;;;;;2.43;2.23;;;11.40;66.60;;;;;;957200;149;27330;-75
2022/05/14 02:37:55;;;;;;;3.73;2.27;;;11.40;66.60;;;;;;957620;149;27247;-75
2022/05/14 02:40:22;;;;;;;3.80;2.37;;;11.40;66.70;;;;;;956590;149;27326;-74
2022/05/14 02:42:48;;;;;;;2.63;2.43;;;11.30;66.70;;;;;;956945;147;27278;-74
2022/05/14 02:45:15;;;;;;;2.50;2.30;;;11.30;67.10;;;;;;959985;149;27282;-75
2022/05/14 02:47:42;;;;;;;2.93;2.60;;;11.30;67.20;;;;;;957914;149;27403;-75
2022/05/14 02:50:08;;;;;;;4.13;2.77;;;11.20;67.20;;;;;;958178;148;27755;-75
2022/05/14 02:52:35;;;;;;;4.80;2.63;;;11.20;67.40;;;;;;949048;149;27424;-75
2022/05/14 02:55:01;;;;;;;3.63;3.17;;;11.20;67.60;;;;;;946495;149;27384;-75
2022/05/14 02:57:28;;;;;;;3.43;2.80;;;11.10;67.70;;;;;;947016;150;27315;-74
2022/05/14 02:59:55;;;;;;;3.73;2.90;;;11.10;68.00;;;;;;946560;150;27436;-75
2022/05/14 03:02:21;;;;;;;3.07;2.57;;;11.10;68.20;;;;;;945886;151;27354;-75
2022/05/14 03:04:48;;;;;;;4.13;2.80;;;11.00;68.20;;;;;;947066;150;27240;-75
2022/05/14 03:07:15;;;;;;;2.60;2.40;;;11.00;68.30;;;;;;946853;150;27318;-75
2022/05/14 03:09:41;;;;;;;3.13;2.83;;;11.00;68.30;;;;;;946872;150;27296;-75
2022/05/14 03:12:08;;;;;;;2.50;2.30;;;11.00;68.50;;;;;;948384;149;27394;-75
2022/05/14 03:14:34;;;;;;;2.70;2.50;;;10.90;68.50;;;;;;954018;149;27338;-75
2022/05/14 03:17:01;;;;;;;3.37;2.67;;;10.90;68.60;;;;;;954282;148;27845;-75
2022/05/14 03:19:27;;;;;;;3.20;2.90;;;10.90;68.70;;;;;;953232;150;27382;-75
2022/05/14 03:21:54;;;;;;;2.53;2.33;;;10.90;68.80;;;;;;953750;148;27271;-74
2022/05/14 03:24:21;;;;;;;2.80;2.37;;;10.80;68.90;;;;;;953113;150;27470;-75
2022/05/14 03:26:47;;;;;;;5.03;3.10;;;10.80;69.10;;;;;;953372;148;27334;-75
2022/05/14 03:29:14;;;;;;;3.13;2.77;;;10.80;69.20;;;;;;952477;148;27339;-74
2022/05/14 03:31:40;;;;;;;2.73;2.40;;;10.80;69.40;;;;;;952995;150;27311;-75
2022/05/14 03:34:07;;;;;;;2.63;2.43;;;10.80;69.50;;;;;;953740;148;27383;-75
2022/05/14 03:36:33;;;;;;;2.17;2.07;;;10.70;69.70;;;;;;953820;148;27275;-75
2022/05/14 03:39:00;;;;;;;2.60;2.40;;;10.70;69.70;;;;;;953979;148;28047;-75
2022/05/14 03:41:28;;;;;;;3.80;2.50;;;10.70;69.80;;;;;;953613;148;27423;-75
2022/05/14 03:43:53;;;;;;;3.67;2.40;;;10.70;69.70;;;;;;953177;150;27391;-75
2022/05/14 03:46:20;;;;;;;2.27;2.17;;;10.70;69.90;;;;;;953695;148;27278;-74
2022/05/14 03:48:46;;;;;;;3.60;2.47;;;10.70;70.00;;;;;;953399;150;27297;-74
2022/05/14 03:51:13;;;;;;;2.70;2.50;;;10.70;70.10;;;;;;953557;148;27394;-74
2022/05/14 03:53:40;;;;;;;2.17;2.07;;;10.70;70.30;;;;;;953632;148;27334;-74
2022/05/14 03:56:06;;;;;;;2.97;2.57;;;10.70;70.50;;;;;;952819;150;27306;-74
2022/05/14 03:58:33;;;;;;;2.80;2.47;;;10.60;70.40;;;;;;953167;149;27418;-74
2022/05/14 04:00:59;;;;;;;3.33;2.67;;;10.70;70.70;;;;;;953584;150;27268;-74
2022/05/14 04:03:26;;;;;;;2.87;2.50;;;10.70;70.90;;;;;;952954;148;27252;-74
2022/05/14 04:05:53;;;;;;;2.47;2.27;;;10.70;70.90;;;;;;953513;150;27346;-73
2022/05/14 04:08:19;;;;;;;3.97;2.30;;;10.70;71.10;;;;;;953401;148;27334;-74
2022/05/14 04:10:46;;;;;;;3.40;2.50;;;10.70;71.10;;;;;;953262;148;27235;-74
2022/05/14 04:13:12;;;;;;;3.47;2.10;;;10.70;71.20;;;;;;948419;150;27333;-74
2022/05/14 04:15:39;;;;;;;2.87;2.60;;;10.70;71.30;;;;;;940199;151;27402;-74
2022/05/14 04:18:05;;;;;;;5.17;2.57;;;10.70;71.30;;;;;;940562;150;27364;-74
2022/05/14 04:20:32;;;;;;;3.07;2.50;;;10.80;71.40;;;;;;940658;150;27340;-74
2022/05/14 04:22:59;;;;;;;3.73;2.60;;;10.80;71.30;;;;;;940946;150;28371;-74
2022/05/14 04:25:25;;;;;;;3.83;2.73;;;10.80;71.40;;;;;;940904;150;27401;-74
2022/05/14 04:27:52;;;;;;;2.80;2.60;;;10.80;71.50;;;;;;940859;151;27354;-74
2022/05/14 04:30:18;;;;;;;2.90;2.60;;;10.80;71.60;;;;;;940612;150;27452;-74
2022/05/14 04:32:45;;;;;;;3.23;2.43;;;10.90;71.60;;;;;;940667;151;27709;-74
2022/05/14 04:35:12;;;;;;;3.00;2.63;;;10.90;71.60;;;;;;940523;151;27297;-74
2022/05/14 04:37:38;;;;;;;3.90;3.50;;;10.90;71.70;;;;;;940607;151;27377;-74
2022/05/14 04:40:05;;;;;;;3.00;2.80;;;11.00;71.90;;;;;;940350;151;27272;-74
2022/05/14 04:42:31;;;;;;;2.70;2.50;;;11.00;72.10;;;;;;940667;151;27297;-74
2022/05/14 04:44:58;;;;;;;3.93;3.20;;;11.10;72.20;;;;;;940410;151;27340;-74
2022/05/14 04:47:25;;;;;;;3.40;2.87;;;11.10;72.40;;;;;;940147;150;27355;-74
2022/05/14 04:49:51;;;;;;;4.50;3.60;;;11.20;72.70;;;;;;940539;151;27424;-74
2022/05/14 04:52:18;;;;;;;3.83;3.07;;;11.30;72.80;;;;;;940062;150;27375;-74
2022/05/14 04:54:44;;;;;;;3.60;3.00;;;11.40;73.30;;;;;;940655;151;27297;-74
2022/05/14 04:57:11;;;;;;;3.33;2.60;;;11.60;73.90;;;;;;940646;149;27351;-74
2022/05/14 04:59:37;;;;;;;3.47;2.53;;;11.90;74.50;;;;;;940228;149;27328;-74
2022/05/14 05:04:49;;;;;;;3.30;2.47;;;12.60;76.40;;;;;;940140;151;27324;-74
2022/05/14 05:07:15;;;;;;;3.73;2.70;;;13.30;77.10;;;;;;939400;150;27441;-74
2022/05/14 05:09:42;;;;;;;3.53;2.17;;;14.00;77.80;;;;;;940697;151;27316;-74
2022/05/14 05:12:09;;;;;;;4.20;2.40;;;14.70;77.40;;;;;;940652;151;27372;-74
2022/05/14 05:14:36;;;;;;;2.27;2.12;;;15.60;77.00;;;;;;940649;150;27821;-74
2022/05/14 05:17:02;;;;;;;2.37;2.10;;;16.40;76.00;;;;;;940661;151;27344;-74
2022/05/14 05:19:30;;;;;;;2.33;2.12;;;17.30;74.40;;;;;;940497;151;27312;-74
2022/05/14 05:21:55;;;;;;;1.70;1.60;;;18.10;72.70;;;;;;940606;151;27313;-74
2022/05/14 05:24:22;;;;;;;2.80;2.30;;;19.00;70.90;;;;;;940762;151;27341;-74
2022/05/14 05:26:48;;;;;;;2.20;2.00;;;19.70;68.90;;;;;;940510;151;27337;-75
2022/05/14 05:29:15;;;;;;;2.40;2.02;;;20.50;67.20;;;;;;939992;151;27304;-74
2022/05/14 05:31:42;;;;;;;2.08;1.87;;;21.20;66.30;;;;;;940523;151;27400;-74
2022/05/14 05:34:08;;;;;;;2.17;1.98;;;22.00;63.90;;;;;;940535;150;27398;-74
2022/05/14 05:36:35;;;;;;;6.22;2.30;;;22.60;62.50;;;;;;940036;151;27290;-74
2022/05/14 05:39:01;;;;;;;2.35;2.02;;;23.40;61.40;;;;;;940476;151;27356;-74
2022/05/14 05:41:28;;;;;;;2.02;1.85;;;24.10;60.00;;;;;;940903;150;27392;-75
2022/05/14 05:43:55;;;;;;;1.92;1.70;;;24.80;59.00;;;;;;940244;151;27329;-75
2022/05/14 05:46:21;;;;;;;2.40;1.90;;;25.40;57.90;;;;;;939090;151;27370;-75
2022/05/14 05:48:48;;;;;;;2.60;2.00;;;26.10;56.80;;;;;;939575;151;27382;-75
2022/05/14 05:51:14;;;;;;;1.82;1.72;;;26.80;55.80;;;;;;939593;149;27388;-75
2022/05/14 05:59:10;;;;;;;2.33;1.50;;;28.60;52.80;;;;;;939503;151;27398;-75
2022/05/14 06:01:37;;;;;;;1.47;1.35;;;29.20;52.00;;;;;;940679;151;27331;-75
2022/05/14 06:04:03;;;;;;;2.58;1.72;;;29.70;51.00;;;;;;940522;151;27802;-75
2022/05/14 06:06:31;;;;;;;2.25;1.80;;;30.10;50.00;;;;;;940776;151;27330;-75
2022/05/14 06:08:56;;;;;;;1.75;1.35;;;30.60;49.40;;;;;;940112;151;28195;-75
2022/05/14 06:11:23;;;;;;;1.95;1.60;;;31.00;48.60;;;;;;940126;151;27239;-75
2022/05/14 06:13:50;;;;;;;2.42;1.80;;;31.50;48.60;;;;;;940990;150;27296;-75
2022/05/14 06:16:16;;;;;;;1.27;1.22;;;31.90;47.30;;;;;;953349;148;27276;-75
2022/05/14 06:18:43;;;;;;;1.72;1.57;;;32.40;46.60;;;;;;953358;148;27448;-75
2022/05/14 06:21:09;;;;;;;2.92;1.60;;;32.80;45.90;;;;;;953419;148;27351;-75
2022/05/14 06:23:36;;;;;;;1.67;1.50;;;33.20;45.20;;;;;;952757;150;27436;-75
2022/05/14 06:26:03;;;;;;;1.87;1.30;;;33.60;44.70;;;;;;953251;150;27303;-75
2022/05/14 06:28:29;;;;;;;2.30;1.37;;;34.10;44.20;;;;;;952930;150;27370;-76
2022/05/14 06:30:56;;;;;;;1.92;1.60;;;34.50;43.50;;;;;;952971;150;27322;-76
2022/05/14 06:33:22;;;;;;;1.57;1.40;;;34.90;43.00;;;;;;952865;148;26340;-76
2022/05/14 06:35:49;;;;;;;1.55;1.30;;;35.30;42.30;;;;;;952766;150;28758;-76
2022/05/14 06:38:16;;;;;;;1.98;1.50;;;35.70;41.80;;;;;;952580;150;26298;-76
2022/05/14 06:40:42;;;;;;;1.98;1.40;;;36.10;41.30;;;;;;953003;148;26363;-76
2022/05/14 06:43:09;;;;;;;1.60;1.50;;;36.40;40.50;;;;;;953309;148;26176;-76
2022/05/14 06:45:35;;;;;;;3.42;1.55;;;36.80;40.10;;;;;;953079;148;26329;-76
2022/05/14 06:48:02;;;;;;;1.90;1.50;;;37.10;39.40;;;;;;953617;150;26251;-76
2022/05/14 06:50:29;;;;;;;2.85;1.62;;;37.40;38.80;;;;;;953692;148;26148;-76
2022/05/14 06:52:55;;;;;;;1.57;1.42;;;37.80;38.30;;;;;;953342;148;26275;-76
2022/05/14 06:55:22;;;;;;;3.42;1.32;;;38.10;37.90;;;;;;953319;149;26306;-76
2022/05/14 06:57:48;;;;;;;2.72;1.52;;;38.40;37.30;;;;;;952150;150;26258;-76
2022/05/14 07:00:15;;;;;;;1.50;1.40;;;38.80;36.70;;;;;;953367;149;26356;-76
2022/05/14 07:02:41;;;;;;;1.80;1.70;;;39.00;36.30;;;;;;953012;148;26320;-76
2022/05/14 07:07:53;;;;;;;3.85;1.77;;;39.70;35.10;;;;;;953542;150;26261;-76
2022/05/14 07:10:19;;;;;;;1.32;1.15;;;40.00;34.80;;;;;;953575;150;27712;-76
2022/05/14 07:12:46;;;;;;;1.87;1.37;;;40.10;34.00;;;;;;953152;150;26299;-74
2022/05/14 07:15:13;;;;;;;2.85;1.30;;;40.30;33.40;;;;;;948485;148;26403;-74
2022/05/14 07:17:39;;;;;;;2.27;1.35;;;40.50;33.00;;;;;;940770;151;26200;-74
2022/05/14 07:20:06;;;;;;;2.15;1.10;;;40.70;32.80;;;;;;940453;151;26283;-74
2022/05/14 07:22:32;;;;;;;2.12;1.20;;;40.90;32.40;;;;;;939439;149;26294;-74
2022/05/14 07:24:59;;;;;;;2.83;1.32;;;41.20;32.30;;;;;;939145;151;27746;-74
2022/05/14 07:27:26;;;;;;;1.67;1.25;;;41.40;31.80;;;;;;939463;149;26246;-74
2022/05/14 07:29:52;;;;;;;2.77;1.27;;;41.60;31.40;;;;;;939726;151;26353;-74
2022/05/14 07:32:19;;;;;;;1.98;1.40;;;41.90;31.20;;;;;;939562;151;26217;-74
2022/05/14 07:34:45;;;;;;;2.30;1.42;;;42.10;31.30;;;;;;939373;149;27139;-74
2022/05/14 07:37:16;;;;;;;2.00;1.40;;;42.30;30.30;;;;;;939512;149;26334;-74
2022/05/14 07:39:41;;;;;;;1.82;1.10;;;42.50;30.10;;;;;;938792;151;26244;-74
2022/05/14 07:42:08;;;;;;;2.30;1.27;;;42.70;29.80;;;;;;939548;149;28222;-74
2022/05/14 07:44:34;;;;;;;3.45;1.50;;;42.90;29.60;;;;;;939764;149;26521;-74
2022/05/14 07:47:01;;;;;;;1.80;1.32;;;43.10;29.30;;;;;;939836;151;26232;-74
2022/05/14 07:49:28;;;;;;;2.85;1.40;;;43.20;29.00;;;;;;940199;151;26300;-74
2022/05/14 07:51:54;;;;;;;2.70;1.25;;;43.40;28.50;;;;;;940373;150;26297;-74
2022/05/14 07:54:21;;;;;;;4.58;1.50;;;43.40;27.70;;;;;;940436;151;26269;-74
2022/05/14 07:56:47;;;;;;;2.83;1.57;;;43.30;27.80;;;;;;940107;150;26218;-74
2022/05/14 07:59:15;;;;;;;1.85;1.20;;;43.20;27.70;;;;;;939834;152;26169;-74
2022/05/14 08:01:41;;;;;;;3.47;1.50;;;43.10;27.70;;;;;;940267;150;26282;-74
2022/05/14 08:04:07;;;;;;;2.85;1.55;;;43.10;27.50;;;;;;939950;152;26333;-74
2022/05/14 08:06:34;;;;;;;2.95;1.62;;;43.10;27.50;;;;;;940008;149;26384;-74
2022/05/14 08:09:00;;;;;;;1.70;1.30;;;43.10;27.40;;;;;;939927;152;26198;-74
2022/05/14 08:11:27;;;;;;;2.47;1.42;;;43.20;27.30;;;;;;939883;152;26222;-74
2022/05/14 08:13:54;;;;;;;2.87;1.70;;;43.20;27.00;;;;;;940067;152;26326;-74
2022/05/14 08:16:20;;;;;;;2.83;1.25;;;43.30;27.00;;;;;;947415;148;26612;-74
2022/05/14 08:18:47;;;;;;;2.65;1.12;;;43.30;26.90;;;;;;952619;148;26263;-74
2022/05/14 08:26:43;;;;;;;2.10;1.75;;;43.60;26.50;;;;;;952911;150;26232;-74
2022/05/14 08:29:10;;;;;;;1.47;1.10;;;43.70;26.90;;;;;;952956;150;26160;-74
2022/05/14 08:31:36;;;;;;;3.80;1.37;;;43.80;26.30;;;;;;953695;149;26270;-74
2022/05/14 08:34:03;;;;;;;2.17;1.30;;;43.80;26.00;;;;;;953619;150;26239;-74
2022/05/14 08:36:29;;;;;;;1.60;1.12;;;43.90;25.60;;;;;;953646;148;26250;-74
2022/05/14 08:38:56;;;;;;;1.87;1.27;;;43.90;25.50;;;;;;953542;150;26332;-74
2022/05/14 08:41:22;;;;;;;2.80;1.10;;;43.90;25.40;;;;;;953319;148;26251;-74
2022/05/14 08:43:55;;;;;;;2.12;1.50;;;43.90;25.40;;;;;;953733;148;26231;-74
2022/05/14 08:46:21;;;;;;;2.22;1.40;;;44.00;25.40;;;;;;952182;149;26368;-74
2022/05/14 08:48:51;;;;;;;1.98;1.20;;;44.00;25.30;;;;;;953277;150;27044;-74
2022/05/14 08:51:18;;;;;;;1.60;0.93;;;44.10;25.20;;;;;;953237;148;26262;-74
2022/05/14 08:53:44;;;;;;;2.00;1.25;;;44.20;25.10;;;;;;952437;150;26219;-74
2022/05/14 08:56:23;;;;;;;2.92;1.37;;;44.20;24.90;;;;;;953178;149;26269;-74
2022/05/14 08:59:04;;;;;;;2.25;1.32;;;44.30;24.90;;;;;;952945;149;26243;-74
2022/05/14 09:01:31;;;;;;;2.35;1.10;;;44.30;24.70;;;;;;907670;157;26267;-74
2022/05/14 09:03:57;;;;;;;1.77;1.17;;;44.30;24.50;;;;;;937260;149;26301;-73
2022/05/14 09:06:24;;;;;;;2.25;1.15;;;44.30;24.40;;;;;;953440;150;26214;-73
2022/05/14 09:08:50;;;;;;;2.12;1.00;;;44.30;24.30;;;;;;953584;148;26218;-74
2022/05/14 09:11:23;;;;;;;2.30;1.17;;;44.30;24.30;;;;;;952371;148;26247;-74
2022/05/14 09:13:53;;;;;;;2.37;1.05;;;44.40;24.40;;;;;;952390;149;26242;-74
2022/05/14 09:16:28;;;;;;;2.92;1.30;;;44.50;24.50;;;;;;949307;149;26241;-74
2022/05/14 09:18:54;;;;;;;2.27;1.30;;;44.60;24.40;;;;;;939972;151;26232;-74
2022/05/14 09:21:27;;;;;;;1.82;1.30;;;44.60;24.10;;;;;;940734;151;26299;-73
2022/05/14 09:24:00;;;;;;;2.67;1.40;;;44.70;24.10;;;;;;940641;151;26271;-74
2022/05/14 09:26:32;;;;;;;2.77;1.15;;;44.80;23.80;;;;;;940548;152;26289;-74
2022/05/14 09:29:17;;;;;;;1.50;1.12;;;44.70;23.60;;;;;;940448;152;26236;-74
2022/05/14 09:31:53;;;;;;;2.10;1.07;;;44.60;23.70;;;;;;940880;150;26318;-73
2022/05/14 09:34:19;;;;;;;1.00;0.90;;;44.40;23.60;;;;;;940712;150;26330;-73
2022/05/14 09:36:47;;;;;;;1.32;0.98;;;44.30;23.50;;;;;;940978;150;26249;-75
2022/05/14 09:39:17;;;;;;;2.72;1.07;;;44.10;23.40;;;;;;940081;151;26220;-74
2022/05/14 09:41:47;;;;;;;1.30;0.72;;;43.90;23.40;;;;;;940838;152;26301;-74
2022/05/14 09:44:13;;;;;;;4.12;1.10;;;43.70;23.50;;;;;;940702;151;26279;-74
2022/05/14 09:46:40;;;;;;;2.05;1.00;;;43.40;23.40;;;;;;940261;151;26275;-73
2022/05/14 09:49:07;;;;;;;1.80;1.20;;;43.20;23.50;;;;;;939843;152;26202;-73
2022/05/14 09:51:37;;;;;;;1.92;1.27;;;43.00;23.40;;;;;;940614;150;26205;-74
2022/05/14 09:54:24;;;;;;;1.40;1.20;;;42.70;23.50;;;;;;938910;151;26260;-73
2022/05/14 09:57:12;;;;;;;2.02;1.30;;;42.50;23.60;;;;;;940721;152;26314;-74
2022/05/14 09:59:50;;;;;;;5.22;1.50;;;42.20;23.60;;;;;;940555;151;26264;-73
2022/05/14 10:02:19;;;;;;;2.15;0.98;;;41.70;23.80;;;;;;940205;152;26358;-74
2022/05/14 10:05:00;;;;;;;2.92;1.12;;;41.20;23.80;;;;;;939525;151;26337;-73
2022/05/14 10:07:33;;;;;;;1.72;1.15;;;40.80;24.00;;;;;;940741;151;27322;-73
2022/05/14 10:10:12;;;;;;;1.87;1.20;;;40.40;24.10;;;;;;940372;151;26249;-73
2022/05/14 10:12:38;;;;;;;2.83;1.30;;;39.90;24.30;;;;;;940761;151;26253;-73
2022/05/14 10:15:13;;;;;;;1.50;1.10;;;39.50;24.30;;;;;;940024;151;26245;-74
2022/05/14 10:18:02;;;;;;;1.85;1.02;;;39.00;24.70;;;;;;928485;149;27000;-74
2022/05/14 10:20:49;;;;;;;1.32;1.20;;;38.60;24.60;;;;;;940449;151;27297;-73
2022/05/14 10:26:49;;;;;;;1.92;1.30;;;37.60;24.90;;;;;;940447;152;27355;-73
2022/05/14 10:29:16;;;;;;;2.10;1.50;;;37.00;25.00;;;;;;940571;151;27357;-73
2022/05/14 10:32:01;;;;;;;1.95;1.30;;;36.50;25.10;;;;;;938817;149;27421;-73
2022/05/14 10:34:33;;;;;;;2.27;1.50;;;36.00;25.30;;;;;;940044;151;27421;-72
2022/05/14 10:37:00;;;;;;;2.10;1.30;;;35.50;25.50;;;;;;937408;152;27309;-73
2022/05/14 10:39:29;;;;;;;2.20;1.30;;;35.10;25.70;;;;;;939727;151;27802;-73
2022/05/14 10:42:08;;;;;;;1.82;1.22;;;34.60;25.90;;;;;;940148;151;27407;-73
2022/05/14 10:44:34;;;;;;;3.00;1.40;;;34.20;26.40;;;;;;918421;151;27470;-73
2022/05/14 10:47:01;;;;;;;1.72;1.22;;;33.80;26.60;;;;;;934014;152;27390;-73
2022/05/14 10:49:39;;;;;;;2.95;1.10;;;33.50;26.80;;;;;;940135;151;27394;-73
2022/05/14 10:52:06;;;;;;;2.02;1.47;;;33.20;27.10;;;;;;939546;150;27945;-73
2022/05/14 10:54:33;;;;;;;3.08;2.02;;;32.90;27.20;;;;;;940023;151;27410;-73
2022/05/14 10:56:59;;;;;;;1.85;0.93;;;32.60;27.40;;;;;;940753;152;27332;-73
2022/05/14 10:59:41;;;;;;;1.40;1.07;;;32.30;27.70;;;;;;937983;152;27325;-73
2022/05/14 11:02:13;;;;;;;1.55;1.00;;;32.00;27.90;;;;;;940445;151;27308;-73
2022/05/14 11:04:47;;;;;;;1.77;1.30;;;31.70;28.20;;;;;;940856;151;27397;-73
2022/05/14 11:07:14;;;;;;;1.82;0.98;;;31.50;28.40;;;;;;940589;151;27341;-72
2022/05/14 11:09:41;;;;;;;0.70;0.70;;;31.30;28.40;;;;;;939148;151;27320;-72
2022/05/14 11:12:13;;;;;;;1.85;1.05;;;31.20;28.50;;;;;;939377;152;27410;-73
2022/05/14 11:14:51;;;;;;;2.52;1.05;;;31.00;28.60;;;;;;939803;151;27419;-73
2022/05/14 11:17:24;;;;;;;3.05;1.05;;;30.80;28.70;;;;;;940182;151;27251;-75
2022/05/14 11:19:53;;;;;;;1.07;0.98;;;30.70;28.90;;;;;;940068;151;27415;-75
2022/05/14 11:22:25;;;;;;;1.52;1.40;;;30.50;29.00;;;;;;939228;151;27397;-75
2022/05/14 11:24:52;;;;;;;1.07;0.90;;;30.40;29.00;;;;;;940831;149;27341;-75
2022/05/14 11:27:24;;;;;;;4.03;1.32;;;30.30;29.00;;;;;;940263;151;27298;-74
2022/05/14 11:29:53;;;;;;;1.70;1.17;;;30.10;29.20;;;;;;940408;149;27391;-75
2022/05/14 11:32:20;;;;;;;1.62;1.20;;;30.00;29.40;;;;;;939822;151;27349;-74
2022/05/14 11:34:52;;;;;;;1.42;1.20;;;30.00;29.60;;;;;;940173;151;27690;-74
2022/05/14 11:37:30;;;;;;;2.85;1.22;;;29.90;29.60;;;;;;940098;152;27329;-75
2022/05/14 11:40:16;;;;;;;2.92;1.22;;;29.70;29.40;;;;;;939731;151;27298;-75
2022/05/14 11:42:43;;;;;;;2.20;1.12;;;29.70;29.70;;;;;;939848;152;27310;-74
2022/05/14 11:45:24;;;;;;;2.12;1.07;;;29.60;29.80;;;;;;940265;151;27349;-74
2022/05/14 11:48:08;;;;;;;2.12;1.30;;;29.50;29.90;;;;;;939269;150;27764;-74
2022/05/14 11:50:41;;;;;;;3.60;1.32;;;29.50;30.00;;;;;;938692;149;27446;-74
2022/05/14 11:53:10;;;;;;;1.90;1.32;;;29.50;30.10;;;;;;938856;151;27410;-75
2022/05/14 11:55:51;;;;;;;1.40;0.93;;;29.40;30.00;;;;;;939609;151;27309;-74
2022/05/14 11:58:33;;;;;;;2.20;0.93;;;29.40;30.00;;;;;;940267;151;27324;-75
2022/05/14 12:01:00;;;;;;;1.90;0.98;;;29.40;30.00;;;;;;939306;151;27336;-75
2022/05/14 12:03:26;;;;;;;4.40;1.10;;;29.30;30.00;;;;;;939422;151;27297;-75
2022/05/14 12:05:59;;;;;;;1.75;1.10;;;29.30;30.30;;;;;;938825;151;27251;-75
2022/05/14 12:08:50;;;;;;;1.10;0.88;;;29.20;30.70;;;;;;940706;151;27298;-74
2022/05/14 12:11:28;;;;;;;2.70;1.30;;;29.20;30.60;;;;;;940745;151;27900;-75
2022/05/14 12:14:14;;;;;;;1.80;1.22;;;29.10;30.50;;;;;;939903;151;27345;-75
2022/05/14 12:16:48;;;;;;;2.08;1.20;;;29.10;30.50;;;;;;940346;151;27411;-74
2022/05/14 12:19:14;;;;;;;2.25;0.90;;;29.10;30.50;;;;;;946549;150;27342;-75
2022/05/14 12:21:41;;;;;;;1.60;1.05;;;29.10;30.60;;;;;;953165;150;27361;-74
2022/05/14 12:24:08;;;;;;;2.33;1.40;;;29.10;30.70;;;;;;953615;147;27336;-75
2022/05/14 12:26:34;;;;;;;1.00;0.80;;;29.10;30.40;;;;;;951518;149;27359;-75
2022/05/14 12:29:13;;;;;;;2.05;1.72;;;29.10;30.60;;;;;;953580;148;27373;-75
2022/05/14 12:34:24;;;;;;;2.52;1.40;;;29.00;31.20;;;;;;953579;150;27332;-74
2022/05/14 12:36:51;;;;;;;1.67;1.00;;;29.00;31.00;;;;;;951915;149;27424;-75
2022/05/14 12:39:17;;;;;;;2.52;1.00;;;29.00;31.20;;;;;;952277;149;27399;-74
2022/05/14 12:41:44;;;;;;;1.20;1.10;;;28.90;31.20;;;;;;952201;150;27319;-74
2022/05/14 12:44:22;;;;;;;1.82;1.10;;;28.90;31.50;;;;;;953104;150;27231;-74
2022/05/14 12:46:54;;;;;;;1.67;1.20;;;28.90;31.50;;;;;;953511;149;28047;-74
2022/05/14 12:49:24;;;;;;;2.98;1.20;;;28.80;31.40;;;;;;953728;150;27456;-75
2022/05/14 12:51:53;;;;;;;0.75;0.75;;;28.80;31.50;;;;;;952354;148;27396;-75
2022/05/14 12:54:23;;;;;;;2.22;1.12;;;28.80;31.70;;;;;;952832;149;27307;-75
2022/05/14 12:56:49;;;;;;;4.15;1.10;;;28.80;31.70;;;;;;952415;149;27435;-75
2022/05/14 12:59:16;;;;;;;1.50;0.85;;;28.80;31.70;;;;;;953582;149;27322;-74
2022/05/14 13:01:42;;;;;;;4.20;1.92;;;28.80;31.60;;;;;;953716;150;27412;-74
2022/05/14 13:04:09;;;;;;;2.80;1.35;;;28.80;31.60;;;;;;953509;150;27396;-75
2022/05/14 13:06:36;;;;;;;3.33;1.10;;;28.80;31.50;;;;;;953376;150;27304;-74
2022/05/14 13:09:05;;;;;;;1.12;1.02;;;28.80;31.50;;;;;;953198;149;27365;-75
2022/05/14 13:11:29;;;;;;;1.50;1.17;;;28.80;31.40;;;;;;952497;149;27358;-75
2022/05/14 13:13:55;;;;;;;1.75;1.00;;;28.80;31.40;;;;;;953362;149;27447;-75
2022/05/14 13:16:22;;;;;;;2.10;0.98;;;28.80;31.30;;;;;;952595;149;27465;-75
2022/05/14 13:18:57;;;;;;;3.52;1.30;;;28.80;31.40;;;;;;951149;148;27341;-75
2022/05/14 13:21:24;;;;;;;1.60;1.17;;;28.70;31.50;;;;;;940638;149;27235;-75
2022/05/14 13:23:53;;;;;;;2.33;1.00;;;28.70;31.60;;;;;;940517;149;27357;-75
2022/05/14 13:26:41;;;;;;;2.12;1.10;;;28.70;31.70;;;;;;940026;150;28765;-74